createdAt,value
2023-03-21T00:00:08.060Z,8.19
2023-03-21T00:00:18.595Z,8.19
2023-03-21T00:00:29.074Z,8.19
2023-03-21T00:00:39.592Z,8.19
2023-03-21T00:00:50.085Z,8.19
2023-03-21T00:01:00.600Z,8.19
2023-03-21T00:01:11.098Z,8.20
2023-03-21T00:01:21.604Z,8.19
2023-03-21T00:01:32.114Z,8.22
2023-03-21T00:01:42.629Z,8.20
2023-03-21T00:01:53.243Z,8.19
2023-03-21T00:02:03.707Z,8.22
2023-03-21T00:02:14.213Z,8.20
2023-03-21T00:02:24.680Z,8.20
2023-03-21T00:02:35.194Z,8.22
2023-03-21T00:02:45.720Z,8.22
2023-03-21T00:02:56.202Z,8.22
2023-03-21T00:03:06.686Z,8.23
2023-03-21T00:03:17.248Z,8.23
2023-03-21T00:03:27.798Z,8.25
2023-03-21T00:03:38.311Z,8.23
2023-03-21T00:03:48.758Z,8.25
2023-03-21T00:03:59.353Z,8.22
2023-03-21T00:04:09.902Z,8.23
2023-03-21T00:04:20.290Z,8.25
2023-03-21T00:04:40.906Z,8.25
2023-03-21T00:04:51.261Z,8.22
2023-03-21T00:04:55.118Z,8.23
2023-03-21T00:05:13.329Z,8.22
2023-03-21T00:05:16.005Z,8.25
2023-03-21T00:05:23.295Z,8.25
2023-03-21T00:05:33.813Z,8.25
2023-03-21T00:05:44.381Z,8.23
2023-03-21T00:05:54.892Z,8.25
2023-03-21T00:06:05.307Z,8.25
2023-03-21T00:06:15.815Z,8.25
2023-03-21T00:06:26.334Z,8.25
2023-03-21T00:06:36.874Z,8.25
2023-03-21T00:06:47.345Z,8.23
2023-03-21T00:06:57.848Z,8.25
2023-03-21T00:07:08.351Z,8.25
2023-03-21T00:07:18.858Z,8.23
2023-03-21T00:07:29.362Z,8.22
2023-03-21T00:07:39.869Z,8.23
2023-03-21T00:07:50.373Z,8.25
2023-03-21T00:08:02.291Z,8.23
2023-03-21T00:08:11.387Z,8.23
2023-03-21T00:08:21.920Z,8.23
2023-03-21T00:08:32.397Z,8.22
2023-03-21T00:08:42.903Z,8.23
2023-03-21T00:08:53.423Z,8.23
2023-03-21T00:09:03.938Z,8.23
2023-03-21T00:09:14.424Z,8.22
2023-03-21T00:09:24.939Z,8.23
2023-03-21T00:09:35.584Z,8.23
2023-03-21T00:09:45.949Z,8.25
2023-03-21T00:10:04.832Z,8.25
2023-03-21T00:10:15.395Z,8.23
2023-03-21T00:10:29.797Z,8.25
2023-03-21T00:10:39.558Z,8.25
2023-03-21T00:10:41.699Z,8.25
2023-03-21T00:10:49.042Z,8.25
2023-03-21T00:10:59.519Z,8.26
2023-03-21T00:11:10.020Z,8.25
2023-03-21T00:11:20.540Z,8.25
2023-03-21T00:11:31.044Z,8.26
2023-03-21T00:11:41.538Z,8.25
2023-03-21T00:11:52.048Z,8.26
2023-03-21T00:12:02.589Z,8.26
2023-03-21T00:12:13.066Z,8.26
2023-03-21T00:12:23.580Z,8.29
2023-03-21T00:12:34.081Z,8.26
2023-03-21T00:12:44.588Z,8.26
2023-03-21T00:12:55.094Z,8.28
2023-03-21T00:13:05.615Z,8.28
2023-03-21T00:13:16.159Z,8.26
2023-03-21T00:13:26.638Z,8.28
2023-03-21T00:13:37.126Z,8.26
2023-03-21T00:13:47.626Z,8.29
2023-03-21T00:13:58.181Z,8.26
2023-03-21T00:14:08.695Z,8.28
2023-03-21T00:14:19.161Z,8.28
2023-03-21T00:14:29.664Z,8.29
2023-03-21T00:14:40.180Z,8.29
2023-03-21T00:14:50.691Z,8.28
2023-03-21T00:15:01.200Z,8.29
2023-03-21T00:15:11.705Z,8.29
2023-03-21T00:15:24.887Z,8.29
2023-03-21T00:15:42.617Z,8.30
2023-03-21T00:15:54.106Z,8.28
2023-03-21T00:16:12.748Z,8.28
2023-03-21T00:16:13.879Z,8.29
2023-03-21T00:16:20.503Z,8.28
2023-03-21T00:16:32.992Z,8.29
2023-03-21T00:16:38.095Z,8.29
2023-03-21T00:16:46.433Z,8.29
2023-03-21T00:16:56.792Z,8.29
2023-03-21T00:17:07.294Z,8.29
2023-03-21T00:17:17.815Z,8.28
2023-03-21T00:17:28.311Z,8.29
2023-03-21T00:17:38.830Z,8.28
2023-03-21T00:17:49.326Z,8.29
2023-03-21T00:17:59.837Z,8.29
2023-03-21T00:18:10.343Z,8.29
2023-03-21T00:18:20.856Z,8.29
2023-03-21T00:18:31.362Z,8.29
2023-03-21T00:18:42.341Z,8.28
2023-03-21T00:18:52.446Z,8.28
2023-03-21T00:19:02.892Z,8.30
2023-03-21T00:19:13.400Z,8.29
2023-03-21T00:19:23.912Z,8.28
2023-03-21T00:19:34.414Z,8.29
2023-03-21T00:19:44.942Z,8.28
2023-03-21T00:19:55.443Z,8.26
2023-03-21T00:20:05.949Z,8.28
2023-03-21T00:20:16.447Z,8.26
2023-03-21T00:20:26.962Z,8.28
2023-03-21T00:20:37.470Z,8.26
2023-03-21T00:20:47.976Z,8.26
2023-03-21T00:21:22.071Z,8.28
2023-03-21T00:21:39.144Z,8.28
2023-03-21T00:21:59.126Z,8.28
2023-03-21T00:22:06.891Z,8.26
2023-03-21T00:22:07.878Z,8.28
2023-03-21T00:22:13.048Z,8.28
2023-03-21T00:22:22.549Z,8.28
2023-03-21T00:22:33.065Z,8.26
2023-03-21T00:22:43.581Z,8.25
2023-03-21T00:22:54.071Z,8.26
2023-03-21T00:23:04.592Z,8.26
2023-03-21T00:23:15.099Z,8.28
2023-03-21T00:23:25.606Z,8.25
2023-03-21T00:23:36.113Z,8.25
2023-03-21T00:23:46.638Z,8.26
2023-03-21T00:23:57.142Z,8.28
2023-03-21T00:24:07.623Z,8.26
2023-03-21T00:24:18.139Z,8.28
2023-03-21T00:24:28.657Z,8.26
2023-03-21T00:24:39.174Z,8.25
2023-03-21T00:24:49.672Z,8.25
2023-03-21T00:25:00.191Z,8.26
2023-03-21T00:25:10.696Z,8.26
2023-03-21T00:25:21.185Z,8.26
2023-03-21T00:25:31.684Z,8.26
2023-03-21T00:25:42.195Z,8.26
2023-03-21T00:25:52.705Z,8.28
2023-03-21T00:26:03.217Z,8.28
2023-03-21T00:26:13.748Z,8.28
2023-03-21T00:26:24.231Z,8.28
2023-03-21T00:26:34.753Z,8.28
2023-03-21T00:26:45.248Z,8.28
2023-03-21T00:27:06.078Z,8.26
2023-03-21T00:27:47.522Z,8.28
2023-03-21T00:27:56.806Z,8.28
2023-03-21T00:28:05.209Z,8.28
2023-03-21T00:28:08.032Z,8.29
2023-03-21T00:28:10.309Z,8.28
2023-03-21T00:28:19.813Z,8.28
2023-03-21T00:28:30.329Z,8.28
2023-03-21T00:28:40.845Z,8.28
2023-03-21T00:28:51.343Z,8.28
2023-03-21T00:29:01.879Z,8.28
2023-03-21T00:29:12.367Z,8.26
2023-03-21T00:29:22.860Z,8.25
2023-03-21T00:29:33.383Z,8.26
2023-03-21T00:29:43.877Z,8.28
2023-03-21T00:29:54.403Z,8.28
2023-03-21T00:30:04.895Z,8.28
2023-03-21T00:30:15.432Z,8.28
2023-03-21T00:30:25.927Z,8.29
2023-03-21T00:30:36.449Z,8.29
2023-03-21T00:30:46.927Z,8.26
2023-03-21T00:30:57.449Z,8.28
2023-03-21T00:31:07.946Z,8.26
2023-03-21T00:31:18.495Z,8.28
2023-03-21T00:31:28.970Z,8.28
2023-03-21T00:31:39.477Z,8.28
2023-03-21T00:31:50.005Z,8.28
2023-03-21T00:32:00.491Z,8.26
2023-03-21T00:32:10.999Z,8.28
2023-03-21T00:32:21.542Z,8.28
2023-03-21T00:32:35.580Z,8.26
2023-03-21T00:32:55.029Z,8.26
2023-03-21T00:32:56.821Z,8.28
2023-03-21T00:33:12.238Z,8.26
2023-03-21T00:33:22.245Z,8.28
2023-03-21T00:33:25.563Z,8.28
2023-03-21T00:33:35.077Z,8.26
2023-03-21T00:33:45.589Z,8.26
2023-03-21T00:33:56.086Z,8.28
2023-03-21T00:34:06.608Z,8.28
2023-03-21T00:34:22.498Z,8.26
2023-03-21T00:34:37.004Z,8.28
2023-03-21T00:34:43.284Z,8.28
2023-03-21T00:35:01.487Z,8.28
2023-03-21T00:35:23.322Z,8.29
2023-03-21T00:35:45.326Z,8.29
2023-03-21T00:35:53.628Z,8.28
2023-03-21T00:35:58.251Z,8.28
2023-03-21T00:36:01.852Z,8.28
2023-03-21T00:36:05.594Z,8.28
2023-03-21T00:36:13.144Z,8.28
2023-03-21T00:36:23.226Z,8.28
2023-03-21T00:36:33.753Z,8.28
2023-03-21T00:36:44.273Z,8.28
2023-03-21T00:36:54.836Z,8.28
2023-03-21T00:37:05.248Z,8.28
2023-03-21T00:37:15.784Z,8.28
2023-03-21T00:37:26.242Z,8.29
2023-03-21T00:37:36.756Z,8.29
2023-03-21T00:37:47.258Z,8.28
2023-03-21T00:37:57.768Z,8.28
2023-03-21T00:38:08.268Z,8.28
2023-03-21T00:38:18.788Z,8.28
2023-03-21T00:38:29.296Z,8.28
2023-03-21T00:38:39.801Z,8.28
2023-03-21T00:38:50.409Z,8.28
2023-03-21T00:39:00.919Z,8.28
2023-03-21T00:39:11.311Z,8.26
2023-03-21T00:39:21.824Z,8.29
2023-03-21T00:39:32.323Z,8.28
2023-03-21T00:39:42.904Z,8.28
2023-03-21T00:39:53.362Z,8.26
2023-03-21T00:40:04.262Z,8.28
2023-03-21T00:40:26.586Z,8.29
2023-03-21T00:40:32.903Z,8.28
2023-03-21T00:40:43.805Z,8.28
2023-03-21T00:40:49.158Z,8.28
2023-03-21T00:40:58.208Z,8.28
2023-03-21T00:41:18.787Z,8.28
2023-03-21T00:41:31.669Z,8.29
2023-03-21T00:41:42.026Z,8.26
2023-03-21T00:41:42.796Z,8.28
2023-03-21T00:41:48.983Z,8.28
2023-03-21T00:41:59.451Z,8.28
2023-03-21T00:42:09.960Z,8.29
2023-03-21T00:42:20.469Z,8.28
2023-03-21T00:42:30.958Z,8.28
2023-03-21T00:42:41.466Z,8.28
2023-03-21T00:42:51.977Z,8.28
2023-03-21T00:43:02.484Z,8.29
2023-03-21T00:43:12.991Z,8.28
2023-03-21T00:43:23.539Z,8.28
2023-03-21T00:43:34.012Z,8.28
2023-03-21T00:43:44.513Z,8.28
2023-03-21T00:43:55.027Z,8.28
2023-03-21T00:44:05.540Z,8.26
2023-03-21T00:44:16.232Z,8.28
2023-03-21T00:44:26.553Z,8.26
2023-03-21T00:44:37.067Z,8.28
2023-03-21T00:44:47.559Z,8.29
2023-03-21T00:44:58.069Z,8.28
2023-03-21T00:45:08.577Z,8.29
2023-03-21T00:45:19.096Z,8.28
2023-03-21T00:45:29.591Z,8.28
2023-03-21T00:45:40.113Z,8.28
2023-03-21T00:45:50.606Z,8.28
2023-03-21T00:46:01.112Z,8.26
2023-03-21T00:46:11.698Z,8.28
2023-03-21T00:46:25.250Z,8.28
2023-03-21T00:46:43.696Z,8.28
2023-03-21T00:46:57.080Z,8.28
2023-03-21T00:47:06.595Z,8.26
2023-03-21T00:47:07.835Z,8.28
2023-03-21T00:47:14.715Z,8.28
2023-03-21T00:47:26.000Z,8.26
2023-03-21T00:47:35.714Z,8.26
2023-03-21T00:47:46.381Z,8.26
2023-03-21T00:47:56.873Z,8.28
2023-03-21T00:48:07.303Z,8.26
2023-03-21T00:48:17.769Z,8.25
2023-03-21T00:48:28.369Z,8.26
2023-03-21T00:48:38.757Z,8.26
2023-03-21T00:48:49.274Z,8.28
2023-03-21T00:48:59.781Z,8.28
2023-03-21T00:49:10.292Z,8.26
2023-03-21T00:49:20.911Z,8.25
2023-03-21T00:49:31.301Z,8.28
2023-03-21T00:49:41.810Z,8.25
2023-03-21T00:49:52.328Z,8.26
2023-03-21T00:50:02.839Z,8.28
2023-03-21T00:50:13.347Z,8.23
2023-03-21T00:50:23.852Z,8.26
2023-03-21T00:50:34.378Z,8.23
2023-03-21T00:50:44.877Z,8.25
2023-03-21T00:50:55.422Z,8.25
2023-03-21T00:51:05.956Z,8.26
2023-03-21T00:51:16.414Z,8.25
2023-03-21T00:51:26.921Z,8.23
2023-03-21T00:51:37.453Z,8.25
2023-03-21T00:51:47.930Z,8.25
2023-03-21T00:52:08.716Z,8.23
2023-03-21T00:52:18.654Z,8.23
2023-03-21T00:52:34.230Z,8.25
2023-03-21T00:52:40.698Z,8.23
2023-03-21T00:52:41.704Z,8.22
2023-03-21T00:52:51.003Z,8.22
2023-03-21T00:53:01.500Z,8.22
2023-03-21T00:53:12.014Z,8.22
2023-03-21T00:53:22.516Z,8.22
2023-03-21T00:53:33.011Z,8.22
2023-03-21T00:53:43.536Z,8.20
2023-03-21T00:53:54.054Z,8.20
2023-03-21T00:54:04.541Z,8.20
2023-03-21T00:54:15.051Z,8.22
2023-03-21T00:54:25.565Z,8.22
2023-03-21T00:54:36.080Z,8.20
2023-03-21T00:54:46.591Z,8.23
2023-03-21T00:54:57.080Z,8.22
2023-03-21T00:55:07.598Z,8.22
2023-03-21T00:55:18.100Z,8.23
2023-03-21T00:55:28.612Z,8.22
2023-03-21T00:55:39.216Z,8.22
2023-03-21T00:55:49.627Z,8.22
2023-03-21T00:56:00.134Z,8.22
2023-03-21T00:56:10.652Z,8.22
2023-03-21T00:56:21.143Z,8.22
2023-03-21T00:56:31.654Z,8.22
2023-03-21T00:56:42.194Z,8.22
2023-03-21T00:56:52.678Z,8.20
2023-03-21T00:57:03.188Z,8.22
2023-03-21T00:57:13.690Z,8.20
2023-03-21T00:57:37.605Z,8.22
2023-03-21T00:57:39.327Z,8.20
2023-03-21T00:57:47.498Z,8.20
2023-03-21T00:58:01.513Z,8.19
2023-03-21T00:58:07.277Z,8.20
2023-03-21T00:58:16.762Z,8.20
2023-03-21T00:58:27.260Z,8.20
2023-03-21T00:58:37.776Z,8.19
2023-03-21T00:58:48.278Z,8.20
2023-03-21T00:58:58.789Z,8.20
2023-03-21T00:59:09.330Z,8.19
2023-03-21T00:59:19.806Z,8.20
2023-03-21T00:59:30.311Z,8.20
2023-03-21T00:59:40.825Z,8.20
2023-03-21T00:59:51.397Z,8.20
2023-03-21T01:00:01.841Z,8.20
2023-03-21T01:00:12.357Z,8.20
2023-03-21T01:00:22.871Z,8.19
2023-03-21T01:00:33.452Z,8.22
2023-03-21T01:00:43.948Z,8.22
2023-03-21T01:00:54.456Z,8.20
2023-03-21T01:01:04.929Z,8.22
2023-03-21T01:01:15.483Z,8.19
2023-03-21T01:01:25.910Z,8.22
2023-03-21T01:01:36.503Z,8.22
2023-03-21T01:01:47.015Z,8.22
2023-03-21T01:01:57.448Z,8.22
2023-03-21T01:02:07.991Z,8.22
2023-03-21T01:02:18.505Z,8.22
2023-03-21T01:02:28.968Z,8.23
2023-03-21T01:02:39.572Z,8.22
2023-03-21T01:02:54.790Z,8.20
2023-03-21T01:03:11.216Z,8.20
2023-03-21T01:03:23.881Z,8.22
2023-03-21T01:03:25.226Z,8.23
2023-03-21T01:03:32.025Z,8.20
2023-03-21T01:03:42.581Z,8.22
2023-03-21T01:03:53.036Z,8.22
2023-03-21T01:04:03.596Z,8.22
2023-03-21T01:04:14.053Z,8.22
2023-03-21T01:04:24.564Z,8.23
2023-03-21T01:04:35.080Z,8.23
2023-03-21T01:04:45.583Z,8.23
2023-03-21T01:04:56.097Z,8.23
2023-03-21T01:05:06.615Z,8.23
2023-03-21T01:05:17.110Z,8.23
2023-03-21T01:05:27.624Z,8.23
2023-03-21T01:05:38.326Z,8.23
2023-03-21T01:05:48.639Z,8.23
2023-03-21T01:05:59.152Z,8.23
2023-03-21T01:06:09.677Z,8.22
2023-03-21T01:06:20.166Z,8.22
2023-03-21T01:06:30.669Z,8.23
2023-03-21T01:06:41.191Z,8.22
2023-03-21T01:06:51.741Z,8.23
2023-03-21T01:07:02.244Z,8.22
2023-03-21T01:07:12.706Z,8.23
2023-03-21T01:07:23.224Z,8.22
2023-03-21T01:07:33.744Z,8.22
2023-03-21T01:07:44.225Z,8.22
2023-03-21T01:07:54.740Z,8.22
2023-03-21T01:08:20.590Z,8.22
2023-03-21T01:08:26.633Z,8.22
2023-03-21T01:08:33.057Z,8.22
2023-03-21T01:08:50.445Z,8.20
2023-03-21T01:08:53.154Z,8.20
2023-03-21T01:08:58.796Z,8.20
2023-03-21T01:09:08.339Z,8.20
2023-03-21T01:09:18.815Z,8.19
2023-03-21T01:09:29.337Z,8.20
2023-03-21T01:09:39.848Z,8.20
2023-03-21T01:09:50.342Z,8.19
2023-03-21T01:10:00.887Z,8.20
2023-03-21T01:10:11.362Z,8.20
2023-03-21T01:10:21.874Z,8.20
2023-03-21T01:10:32.381Z,8.19
2023-03-21T01:10:42.892Z,8.20
2023-03-21T01:10:53.397Z,8.20
2023-03-21T01:11:03.935Z,8.22
2023-03-21T01:11:14.419Z,8.19
2023-03-21T01:11:24.979Z,8.19
2023-03-21T01:11:35.441Z,8.20
2023-03-21T01:11:45.964Z,8.20
2023-03-21T01:11:56.463Z,8.19
2023-03-21T01:12:06.962Z,8.20
2023-03-21T01:12:17.471Z,8.19
2023-03-21T01:12:27.987Z,8.19
2023-03-21T01:12:38.494Z,8.19
2023-03-21T01:12:48.996Z,8.20
2023-03-21T01:12:59.513Z,8.19
2023-03-21T01:13:10.018Z,8.19
2023-03-21T01:13:20.537Z,8.20
2023-03-21T01:13:31.874Z,8.19
2023-03-21T01:13:52.970Z,8.19
2023-03-21T01:14:07.153Z,8.20
2023-03-21T01:14:20.982Z,8.19
2023-03-21T01:14:22.610Z,8.20
2023-03-21T01:14:24.583Z,8.20
2023-03-21T01:14:34.154Z,8.19
2023-03-21T01:14:44.598Z,8.20
2023-03-21T01:14:55.108Z,8.19
2023-03-21T01:15:05.618Z,8.19
2023-03-21T01:15:16.123Z,8.19
2023-03-21T01:15:26.637Z,8.20
2023-03-21T01:15:37.336Z,8.20
2023-03-21T01:15:47.666Z,8.19
2023-03-21T01:15:58.187Z,8.20
2023-03-21T01:16:08.718Z,8.22
2023-03-21T01:16:19.190Z,8.20
2023-03-21T01:16:29.741Z,8.19
2023-03-21T01:16:40.188Z,8.20
2023-03-21T01:16:50.716Z,8.18
2023-03-21T01:17:01.219Z,8.20
2023-03-21T01:17:11.747Z,8.20
2023-03-21T01:17:22.226Z,8.19
2023-03-21T01:17:32.723Z,8.19
2023-03-21T01:17:43.238Z,8.19
2023-03-21T01:17:53.744Z,8.19
2023-03-21T01:18:04.259Z,8.19
2023-03-21T01:18:14.755Z,8.19
2023-03-21T01:18:25.276Z,8.19
2023-03-21T01:18:35.776Z,8.18
2023-03-21T01:18:46.284Z,8.18
2023-03-21T01:18:56.788Z,8.18
2023-03-21T01:19:14.857Z,8.18
2023-03-21T01:19:25.567Z,8.18
2023-03-21T01:19:44.291Z,8.19
2023-03-21T01:19:51.080Z,8.18
2023-03-21T01:19:52.044Z,8.18
2023-03-21T01:19:59.860Z,8.18
2023-03-21T01:20:10.355Z,8.18
2023-03-21T01:20:20.848Z,8.18
2023-03-21T01:20:31.359Z,8.19
2023-03-21T01:20:41.871Z,8.18
2023-03-21T01:20:52.397Z,8.19
2023-03-21T01:21:02.884Z,8.19
2023-03-21T01:21:13.391Z,8.18
2023-03-21T01:21:23.964Z,8.16
2023-03-21T01:21:34.422Z,8.18
2023-03-21T01:21:44.921Z,8.16
2023-03-21T01:21:55.437Z,8.16
2023-03-21T01:22:05.962Z,8.16
2023-03-21T01:22:16.445Z,8.16
2023-03-21T01:22:26.956Z,8.15
2023-03-21T01:22:37.460Z,8.18
2023-03-21T01:22:47.982Z,8.16
2023-03-21T01:22:58.480Z,8.15
2023-03-21T01:23:09.003Z,8.16
2023-03-21T01:23:19.500Z,8.16
2023-03-21T01:23:30.005Z,8.16
2023-03-21T01:23:40.508Z,8.18
2023-03-21T01:23:51.052Z,8.16
2023-03-21T01:24:01.546Z,8.18
2023-03-21T01:24:12.036Z,8.16
2023-03-21T01:24:22.549Z,8.16
2023-03-21T01:24:35.599Z,8.18
2023-03-21T01:24:53.015Z,8.15
2023-03-21T01:25:00.592Z,8.16
2023-03-21T01:25:21.086Z,8.16
2023-03-21T01:25:22.370Z,8.18
2023-03-21T01:25:26.599Z,8.18
2023-03-21T01:25:36.312Z,8.16
2023-03-21T01:25:46.634Z,8.16
2023-03-21T01:25:57.116Z,8.18
2023-03-21T01:26:07.638Z,8.16
2023-03-21T01:26:18.131Z,8.18
2023-03-21T01:26:28.643Z,8.18
2023-03-21T01:26:39.159Z,8.18
2023-03-21T01:26:49.714Z,8.16
2023-03-21T01:27:00.169Z,8.18
2023-03-21T01:27:10.680Z,8.18
2023-03-21T01:27:21.210Z,8.19
2023-03-21T01:27:31.701Z,8.18
2023-03-21T01:27:42.213Z,8.18
2023-03-21T01:27:52.715Z,8.18
2023-03-21T01:28:03.227Z,8.18
2023-03-21T01:28:13.730Z,8.15
2023-03-21T01:28:24.236Z,8.16
2023-03-21T01:28:34.749Z,8.16
2023-03-21T01:28:45.271Z,8.15
2023-03-21T01:28:55.758Z,8.16
2023-03-21T01:29:06.271Z,8.16
2023-03-21T01:29:16.776Z,8.16
2023-03-21T01:29:27.286Z,8.16
2023-03-21T01:29:37.803Z,8.15
2023-03-21T01:29:48.309Z,8.16
2023-03-21T01:29:59.830Z,8.16
2023-03-21T01:30:19.136Z,8.15
2023-03-21T01:30:24.046Z,8.18
2023-03-21T01:30:33.953Z,8.16
2023-03-21T01:30:42.230Z,8.16
2023-03-21T01:30:51.362Z,8.18
2023-03-21T01:31:01.905Z,8.18
2023-03-21T01:31:12.451Z,8.16
2023-03-21T01:31:22.975Z,8.18
2023-03-21T01:31:33.414Z,8.16
2023-03-21T01:31:44.003Z,8.16
2023-03-21T01:31:54.434Z,8.16
2023-03-21T01:32:04.915Z,8.16
2023-03-21T01:32:15.427Z,8.16
2023-03-21T01:32:25.927Z,8.16
2023-03-21T01:32:36.467Z,8.18
2023-03-21T01:32:46.942Z,8.18
2023-03-21T01:32:57.461Z,8.16
2023-03-21T01:33:07.969Z,8.18
2023-03-21T01:33:18.464Z,8.15
2023-03-21T01:33:28.990Z,8.16
2023-03-21T01:33:39.486Z,8.18
2023-03-21T01:33:49.992Z,8.16
2023-03-21T01:34:00.508Z,8.15
2023-03-21T01:34:11.013Z,8.18
2023-03-21T01:34:21.529Z,8.18
2023-03-21T01:34:32.026Z,8.16
2023-03-21T01:34:42.538Z,8.16
2023-03-21T01:34:53.045Z,8.18
2023-03-21T01:35:03.561Z,8.16
2023-03-21T01:35:14.069Z,8.16
2023-03-21T01:35:25.046Z,8.16
2023-03-21T01:35:47.895Z,8.16
2023-03-21T01:35:55.191Z,8.18
2023-03-21T01:36:06.557Z,8.16
2023-03-21T01:36:13.153Z,8.18
2023-03-21T01:36:20.467Z,8.18
2023-03-21T01:36:27.667Z,8.16
2023-03-21T01:36:38.215Z,8.16
2023-03-21T01:36:48.681Z,8.16
2023-03-21T01:36:59.179Z,8.16
2023-03-21T01:37:09.708Z,8.16
2023-03-21T01:37:20.166Z,8.18
2023-03-21T01:37:30.677Z,8.16
2023-03-21T01:37:41.182Z,8.18
2023-03-21T01:37:51.698Z,8.15
2023-03-21T01:38:02.199Z,8.16
2023-03-21T01:38:12.713Z,8.15
2023-03-21T01:38:23.216Z,8.16
2023-03-21T01:38:33.749Z,8.16
2023-03-21T01:38:44.241Z,8.16
2023-03-21T01:38:54.788Z,8.16
2023-03-21T01:39:05.256Z,8.18
2023-03-21T01:39:15.773Z,8.18
2023-03-21T01:39:26.307Z,8.15
2023-03-21T01:39:36.776Z,8.18
2023-03-21T01:39:47.286Z,8.16
2023-03-21T01:39:57.792Z,8.18
2023-03-21T01:40:08.292Z,8.16
2023-03-21T01:40:18.805Z,8.18
2023-03-21T01:40:29.311Z,8.18
2023-03-21T01:40:39.817Z,8.19
2023-03-21T01:40:50.318Z,8.16
2023-03-21T01:41:00.840Z,8.18
2023-03-21T01:41:19.483Z,8.18
2023-03-21T01:41:26.162Z,8.16
2023-03-21T01:41:43.375Z,8.16
2023-03-21T01:41:44.783Z,8.18
2023-03-21T01:41:53.383Z,8.16
2023-03-21T01:42:03.888Z,8.18
2023-03-21T01:42:14.402Z,8.16
2023-03-21T01:42:24.901Z,8.18
2023-03-21T01:42:35.411Z,8.18
2023-03-21T01:42:45.918Z,8.16
2023-03-21T01:42:56.424Z,8.18
2023-03-21T01:43:06.930Z,8.18
2023-03-21T01:43:17.436Z,8.18
2023-03-21T01:43:27.951Z,8.19
2023-03-21T01:43:38.453Z,8.16
2023-03-21T01:43:48.968Z,8.19
2023-03-21T01:43:59.475Z,8.18
2023-03-21T01:44:09.980Z,8.18
2023-03-21T01:44:20.496Z,8.16
2023-03-21T01:44:31.006Z,8.18
2023-03-21T01:44:41.503Z,8.19
2023-03-21T01:44:52.024Z,8.16
2023-03-21T01:45:02.540Z,8.18
2023-03-21T01:45:13.030Z,8.19
2023-03-21T01:45:23.536Z,8.18
2023-03-21T01:45:34.104Z,8.18
2023-03-21T01:45:44.578Z,8.18
2023-03-21T01:45:55.157Z,8.18
2023-03-21T01:46:05.620Z,8.18
2023-03-21T01:46:16.224Z,8.19
2023-03-21T01:46:27.356Z,8.16
2023-03-21T01:46:47.807Z,8.18
2023-03-21T01:46:57.369Z,8.18
2023-03-21T01:47:11.953Z,8.19
2023-03-21T01:47:13.185Z,8.18
2023-03-21T01:47:19.122Z,8.16
2023-03-21T01:47:29.635Z,8.18
2023-03-21T01:47:40.196Z,8.19
2023-03-21T01:47:50.660Z,8.16
2023-03-21T01:48:01.188Z,8.18
2023-03-21T01:48:11.714Z,8.16
2023-03-21T01:48:22.166Z,8.18
2023-03-21T01:48:32.676Z,8.16
2023-03-21T01:48:43.190Z,8.19
2023-03-21T01:48:53.702Z,8.15
2023-03-21T01:49:04.197Z,8.18
2023-03-21T01:49:14.707Z,8.16
2023-03-21T01:49:25.221Z,8.16
2023-03-21T01:49:35.741Z,8.15
2023-03-21T01:49:46.669Z,8.15
2023-03-21T01:49:56.743Z,8.12
2023-03-21T01:50:07.254Z,8.15
2023-03-21T01:50:17.789Z,8.16
2023-03-21T01:50:28.272Z,8.16
2023-03-21T01:50:38.775Z,8.16
2023-03-21T01:50:49.281Z,8.16
2023-03-21T01:50:59.802Z,8.18
2023-03-21T01:51:10.345Z,8.16
2023-03-21T01:51:20.806Z,8.16
2023-03-21T01:51:31.357Z,8.16
2023-03-21T01:51:41.870Z,8.16
2023-03-21T01:51:53.672Z,8.16
2023-03-21T01:52:11.410Z,8.16
2023-03-21T01:52:23.544Z,8.16
2023-03-21T01:52:37.871Z,8.16
2023-03-21T01:52:38.369Z,8.16
2023-03-21T01:52:44.885Z,8.16
2023-03-21T01:52:55.389Z,8.16
2023-03-21T01:53:05.898Z,8.16
2023-03-21T01:53:16.412Z,8.16
2023-03-21T01:53:26.923Z,8.16
2023-03-21T01:53:37.432Z,8.18
2023-03-21T01:53:47.930Z,8.16
2023-03-21T01:53:58.446Z,8.16
2023-03-21T01:54:08.944Z,8.16
2023-03-21T01:54:19.463Z,8.15
2023-03-21T01:54:29.975Z,8.16
2023-03-21T01:54:40.471Z,8.16
2023-03-21T01:54:50.969Z,8.18
2023-03-21T01:55:01.488Z,8.18
2023-03-21T01:55:12.174Z,8.16
2023-03-21T01:55:22.494Z,8.18
2023-03-21T01:55:33.005Z,8.18
2023-03-21T01:55:43.514Z,8.18
2023-03-21T01:55:54.022Z,8.18
2023-03-21T01:56:04.534Z,8.18
2023-03-21T01:56:15.051Z,8.16
2023-03-21T01:56:25.548Z,8.15
2023-03-21T01:56:36.051Z,8.18
2023-03-21T01:56:46.556Z,8.18
2023-03-21T01:56:57.083Z,8.18
2023-03-21T01:57:07.574Z,8.18
2023-03-21T01:57:18.079Z,8.16
2023-03-21T01:57:35.519Z,8.18
2023-03-21T01:57:49.249Z,8.18
2023-03-21T01:58:04.335Z,8.19
2023-03-21T01:58:07.910Z,8.18
2023-03-21T01:58:11.635Z,8.18
2023-03-21T01:58:21.124Z,8.18
2023-03-21T01:58:31.638Z,8.18
2023-03-21T01:58:42.152Z,8.18
2023-03-21T01:58:52.675Z,8.18
2023-03-21T01:59:03.171Z,8.18
2023-03-21T01:59:13.687Z,8.19
2023-03-21T01:59:24.181Z,8.19
2023-03-21T01:59:34.710Z,8.19
2023-03-21T01:59:45.200Z,8.19
2023-03-21T01:59:55.699Z,8.18
2023-03-21T02:00:06.207Z,8.18
2023-03-21T02:00:16.730Z,8.19
2023-03-21T02:00:27.216Z,8.19
2023-03-21T02:00:37.738Z,8.19
2023-03-21T02:00:48.273Z,8.19
2023-03-21T02:00:58.764Z,8.19
2023-03-21T02:01:09.290Z,8.19
2023-03-21T02:01:19.834Z,8.20
2023-03-21T02:01:30.304Z,8.20
2023-03-21T02:01:40.791Z,8.20
2023-03-21T02:01:51.299Z,8.20
2023-03-21T02:02:01.803Z,8.20
2023-03-21T02:02:14.938Z,8.20
2023-03-21T02:02:22.845Z,8.20
2023-03-21T02:02:33.304Z,8.22
2023-03-21T02:02:43.818Z,8.20
2023-03-21T02:02:54.574Z,8.20
2023-03-21T02:03:13.690Z,8.20
2023-03-21T02:03:26.247Z,8.22
2023-03-21T02:03:35.621Z,8.20
2023-03-21T02:03:37.407Z,8.20
2023-03-21T02:03:46.903Z,8.20
2023-03-21T02:03:57.401Z,8.20
2023-03-21T02:04:07.948Z,8.20
2023-03-21T02:04:18.412Z,8.22
2023-03-21T02:04:28.903Z,8.20
2023-03-21T02:04:39.394Z,8.20
2023-03-21T02:04:49.909Z,8.19
2023-03-21T02:05:00.456Z,8.22
2023-03-21T02:05:10.940Z,8.19
2023-03-21T02:05:21.451Z,8.22
2023-03-21T02:05:31.948Z,8.20
2023-03-21T02:05:42.482Z,8.20
2023-03-21T02:05:52.977Z,8.19
2023-03-21T02:06:03.474Z,8.20
2023-03-21T02:06:13.986Z,8.19
2023-03-21T02:06:24.502Z,8.20
2023-03-21T02:06:35.003Z,8.20
2023-03-21T02:06:45.500Z,8.19
2023-03-21T02:06:56.014Z,8.19
2023-03-21T02:07:06.519Z,8.19
2023-03-21T02:07:17.049Z,8.22
2023-03-21T02:07:27.536Z,8.19
2023-03-21T02:07:38.042Z,8.19
2023-03-21T02:07:48.544Z,8.19
2023-03-21T02:07:59.059Z,8.20
2023-03-21T02:08:09.568Z,8.20
2023-03-21T02:08:22.289Z,8.22
2023-03-21T02:08:39.263Z,8.22
2023-03-21T02:08:42.099Z,8.20
2023-03-21T02:08:51.609Z,8.20
2023-03-21T02:09:02.125Z,8.23
2023-03-21T02:09:12.629Z,8.23
2023-03-21T02:09:23.134Z,8.22
2023-03-21T02:09:33.725Z,8.22
2023-03-21T02:09:44.158Z,8.22
2023-03-21T02:09:54.672Z,8.25
2023-03-21T02:10:05.223Z,8.23
2023-03-21T02:10:15.683Z,8.23
2023-03-21T02:10:26.210Z,8.23
2023-03-21T02:10:36.721Z,8.23
2023-03-21T02:10:49.463Z,8.25
2023-03-21T02:10:57.726Z,8.25
2023-03-21T02:11:08.274Z,8.25
2023-03-21T02:11:18.741Z,8.26
2023-03-21T02:11:29.255Z,8.25
2023-03-21T02:11:39.773Z,8.23
2023-03-21T02:11:50.271Z,8.23
2023-03-21T02:12:00.771Z,8.25
2023-03-21T02:12:11.341Z,8.23
2023-03-21T02:12:21.785Z,8.23
2023-03-21T02:12:32.296Z,8.26
2023-03-21T02:12:42.835Z,8.25
2023-03-21T02:12:53.314Z,8.26
2023-03-21T02:13:03.820Z,8.25
2023-03-21T02:13:14.326Z,8.26
2023-03-21T02:13:24.836Z,8.26
2023-03-21T02:13:35.347Z,8.26
2023-03-21T02:13:45.851Z,8.25
2023-03-21T02:14:06.376Z,8.25
2023-03-21T02:14:08.109Z,8.25
2023-03-21T02:14:26.605Z,8.26
2023-03-21T02:14:29.710Z,8.25
2023-03-21T02:14:38.401Z,8.23
2023-03-21T02:14:48.940Z,8.23
2023-03-21T02:14:59.425Z,8.23
2023-03-21T02:15:09.925Z,8.25
2023-03-21T02:15:20.445Z,8.23
2023-03-21T02:15:30.963Z,8.23
2023-03-21T02:15:41.476Z,8.25
2023-03-21T02:15:51.975Z,8.25
2023-03-21T02:16:02.489Z,8.23
2023-03-21T02:16:13.083Z,8.22
2023-03-21T02:16:23.547Z,8.22
2023-03-21T02:16:34.066Z,8.23
2023-03-21T02:16:44.559Z,8.22
2023-03-21T02:16:55.086Z,8.20
2023-03-21T02:17:05.558Z,8.22
2023-03-21T02:17:16.055Z,8.22
2023-03-21T02:17:26.571Z,8.23
2023-03-21T02:17:37.123Z,8.20
2023-03-21T02:17:47.608Z,8.22
2023-03-21T02:17:58.089Z,8.22
2023-03-21T02:18:08.600Z,8.22
2023-03-21T02:18:19.115Z,8.20
2023-03-21T02:18:29.612Z,8.19
2023-03-21T02:18:40.123Z,8.20
2023-03-21T02:18:50.643Z,8.20
2023-03-21T02:19:01.135Z,8.20
2023-03-21T02:19:13.999Z,8.20
2023-03-21T02:19:29.569Z,8.19
2023-03-21T02:19:39.326Z,8.20
2023-03-21T02:19:52.732Z,8.20
2023-03-21T02:19:54.677Z,8.19
2023-03-21T02:20:04.183Z,8.20
2023-03-21T02:20:14.698Z,8.19
2023-03-21T02:20:25.216Z,8.19
2023-03-21T02:20:35.708Z,8.19
2023-03-21T02:20:46.214Z,8.19